sensor_id;sensor_type;location;lat;lon;timestamp;pressure;altitude;pressure_sealevel;temperature;humidity
55763;BME280;42162;51.958;5.426;2023-10-13T00:00:30;101167.16;;;17.10;92.47
55763;BME280;42162;51.958;5.426;2023-10-13T00:03:04;101165.38;;;17.11;92.40
55763;BME280;42162;51.958;5.426;2023-10-13T00:05:33;101169.69;;;17.12;92.57
55763;BME280;42162;51.958;5.426;2023-10-13T00:08:04;101177.53;;;17.14;92.66
55763;BME280;42162;51.958;5.426;2023-10-13T00:10:31;101172.31;;;17.12;92.76
55763;BME280;42162;51.958;5.426;2023-10-13T00:13:01;101171.50;;;17.11;92.57
55763;BME280;42162;51.958;5.426;2023-10-13T00:15:44;101155.81;;;17.10;92.54
55763;BME280;42162;51.958;5.426;2023-10-13T00:18:30;101156.66;;;17.10;92.56
55763;BME280;42162;51.958;5.426;2023-10-13T00:21:01;101150.56;;;17.10;92.65
55763;BME280;42162;51.958;5.426;2023-10-13T00:23:40;101141.06;;;17.07;92.56
55763;BME280;42162;51.958;5.426;2023-10-13T00:26:21;101153.25;;;17.08;93.04
55763;BME280;42162;51.958;5.426;2023-10-13T00:28:58;101147.16;;;17.08;92.77
55763;BME280;42162;51.958;5.426;2023-10-13T00:31:28;101146.22;;;17.09;92.86
55763;BME280;42162;51.958;5.426;2023-10-13T00:34:03;101146.22;;;17.09;92.93
55763;BME280;42162;51.958;5.426;2023-10-13T00:36:40;101148.00;;;17.08;93.09
55763;BME280;42162;51.958;5.426;2023-10-13T00:39:37;101141.06;;;17.07;92.81
55763;BME280;42162;51.958;5.426;2023-10-13T00:42:07;101133.19;;;17.07;92.98
55763;BME280;42162;51.958;5.426;2023-10-13T00:44:34;101125.31;;;17.07;93.11
55763;BME280;42162;51.958;5.426;2023-10-13T00:47:09;101127.94;;;17.07;92.94
55763;BME280;42162;51.958;5.426;2023-10-13T00:49:37;101121.06;;;17.05;93.17
55763;BME280;42162;51.958;5.426;2023-10-13T00:52:07;101116.66;;;17.05;92.95
55763;BME280;42162;51.958;5.426;2023-10-13T00:54:37;101117.56;;;17.04;93.31
55763;BME280;42162;51.958;5.426;2023-10-13T00:57:05;101117.56;;;17.04;93.38
55763;BME280;42162;51.958;5.426;2023-10-13T00:59:38;101115.03;;;17.03;93.26
55763;BME280;42162;51.958;5.426;2023-10-13T01:02:09;101115.03;;;17.03;93.25
55763;BME280;42162;51.958;5.426;2023-10-13T01:04:54;101111.56;;;17.02;93.11
55763;BME280;42162;51.958;5.426;2023-10-13T01:07:21;101115.03;;;17.03;93.26
55763;BME280;42162;51.958;5.426;2023-10-13T01:09:50;101108.00;;;17.03;93.60
55763;BME280;42162;51.958;5.426;2023-10-13T01:12:17;101093.22;;;17.02;93.36
55763;BME280;42162;51.958;5.426;2023-10-13T01:14:44;101105.38;;;17.03;93.36
55763;BME280;42162;51.958;5.426;2023-10-13T01:17:12;101093.22;;;17.02;93.53
55763;BME280;42162;51.958;5.426;2023-10-13T01:19:40;101089.84;;;16.99;93.41
55763;BME280;42162;51.958;5.426;2023-10-13T01:22:12;101089.81;;;17.00;93.71
55763;BME280;42162;51.958;5.426;2023-10-13T01:24:39;101084.56;;;17.00;93.52
55763;BME280;42162;51.958;5.426;2023-10-13T01:27:07;101082.72;;;17.02;93.62
55763;BME280;42162;51.958;5.426;2023-10-13T01:29:52;101072.22;;;17.02;93.32
55763;BME280;42162;51.958;5.426;2023-10-13T01:32:31;101076.50;;;17.03;93.42
55763;BME280;42162;51.958;5.426;2023-10-13T01:34:58;101072.13;;;17.04;93.46
55763;BME280;42162;51.958;5.426;2023-10-13T01:37:32;101073.88;;;17.03;93.63
55763;BME280;42162;51.958;5.426;2023-10-13T01:39:59;101074.06;;;17.00;93.39
55763;BME280;42162;51.958;5.426;2023-10-13T01:42:26;101074.09;;;16.99;93.34
55763;BME280;42162;51.958;5.426;2023-10-13T01:44:54;101061.84;;;16.99;93.41
55763;BME280;42162;51.958;5.426;2023-10-13T01:47:32;101059.22;;;16.99;93.41
55763;BME280;42162;51.958;5.426;2023-10-13T01:50:00;101063.56;;;17.00;93.61
55763;BME280;42162;51.958;5.426;2023-10-13T01:52:40;101045.25;;;16.99;93.17
55763;BME280;42162;51.958;5.426;2023-10-13T01:55:09;101043.50;;;16.99;93.35
55763;BME280;42162;51.958;5.426;2023-10-13T01:57:38;101040.09;;;16.97;93.35
55763;BME280;42162;51.958;5.426;2023-10-13T02:00:08;101047.97;;;16.97;93.37
55763;BME280;42162;51.958;5.426;2023-10-13T02:02:46;101034.84;;;16.97;93.52
55763;BME280;42162;51.958;5.426;2023-10-13T02:05:17;101042.72;;;16.97;93.20
55763;BME280;42162;51.958;5.426;2023-10-13T02:07:44;101036.63;;;16.96;93.26
55763;BME280;42162;51.958;5.426;2023-10-13T02:10:14;101032.28;;;16.95;93.26
55763;BME280;42162;51.958;5.426;2023-10-13T02:12:41;101026.28;;;16.92;93.27
55763;BME280;42162;51.958;5.426;2023-10-13T02:15:14;101029.78;;;16.92;93.36
55763;BME280;42162;51.958;5.426;2023-10-13T02:17:48;101022.00;;;16.91;93.35
55763;BME280;42162;51.958;5.426;2023-10-13T02:20:19;101023.66;;;16.92;93.58
55763;BME280;42162;51.958;5.426;2023-10-13T02:22:49;101013.25;;;16.90;93.18
55763;BME280;42162;51.958;5.426;2023-10-13T02:25:20;101010.63;;;16.90;93.36
55763;BME280;42162;51.958;5.426;2023-10-13T02:28:09;101006.31;;;16.89;93.36
55763;BME280;42162;51.958;5.426;2023-10-13T02:30:42;100994.97;;;16.89;93.27
55763;BME280;42162;51.958;5.426;2023-10-13T02:33:12;100995.81;;;16.89;93.38
55763;BME280;42162;51.958;5.426;2023-10-13T02:35:40;100999.22;;;16.91;93.53
55763;BME280;42162;51.958;5.426;2023-10-13T02:38:21;100988.72;;;16.91;93.48
55763;BME280;42162;51.958;5.426;2023-10-13T02:40:59;100984.31;;;16.92;93.48
55763;BME280;42162;51.958;5.426;2023-10-13T02:43:34;100983.38;;;16.94;93.40
55763;BME280;42162;51.958;5.426;2023-10-13T02:46:02;100978.03;;;16.96;93.45
55763;BME280;42162;51.958;5.426;2023-10-13T02:48:30;100962.38;;;16.94;93.41
55763;BME280;42162;51.958;5.426;2023-10-13T02:51:06;100954.50;;;16.94;93.33
55763;BME280;42162;51.958;5.426;2023-10-13T02:53:46;100950.22;;;16.92;93.39
55763;BME280;42162;51.958;5.426;2023-10-13T02:56:17;100946.63;;;16.94;93.32
55763;BME280;42162;51.958;5.426;2023-10-13T02:58:48;100949.19;;;16.96;93.40
55763;BME280;42162;51.958;5.426;2023-10-13T03:01:35;100950.09;;;16.95;93.13
55763;BME280;42162;51.958;5.426;2023-10-13T03:04:03;100939.59;;;16.95;93.39
55763;BME280;42162;51.958;5.426;2023-10-13T03:06:36;100941.41;;;16.93;93.31
55763;BME280;42162;51.958;5.426;2023-10-13T03:09:08;100932.03;;;16.89;93.23
55763;BME280;42162;51.958;5.426;2023-10-13T03:11:42;100917.34;;;16.85;93.32
55763;BME280;42162;51.958;5.426;2023-10-13T03:14:17;100908.69;;;16.83;93.27
55763;BME280;42162;51.958;5.426;2023-10-13T03:17:00;100894.81;;;16.80;93.27
55763;BME280;42162;51.958;5.426;2023-10-13T03:19:33;100895.69;;;16.81;93.48
55763;BME280;42162;51.958;5.426;2023-10-13T03:22:06;100903.63;;;16.79;93.36
55763;BME280;42162;51.958;5.426;2023-10-13T03:24:40;100890.66;;;16.76;93.36
55763;BME280;42162;51.958;5.426;2023-10-13T03:27:14;100882.84;;;16.75;93.73
55763;BME280;42162;51.958;5.426;2023-10-13T03:29:45;100884.63;;;16.74;93.78
55763;BME280;42162;51.958;5.426;2023-10-13T03:32:22;100883.06;;;16.70;93.96
55763;BME280;42162;51.958;5.426;2023-10-13T03:34:54;100884.00;;;16.69;94.09
55763;BME280;42162;51.958;5.426;2023-10-13T03:37:27;100884.00;;;16.69;93.99
55763;BME280;42162;51.958;5.426;2023-10-13T03:40:09;100882.25;;;16.70;94.11
55763;BME280;42162;51.958;5.426;2023-10-13T03:42:49;100867.56;;;16.65;94.07
55763;BME280;42162;51.958;5.426;2023-10-13T03:45:32;100860.72;;;16.63;94.30
55763;BME280;42162;51.958;5.426;2023-10-13T03:48:10;100860.63;;;16.64;94.30
55763;BME280;42162;51.958;5.426;2023-10-13T03:51:01;100848.38;;;16.65;94.41
55763;BME280;42162;51.958;5.426;2023-10-13T03:53:37;100840.56;;;16.63;94.56
55763;BME280;42162;51.958;5.426;2023-10-13T03:56:24;100844.13;;;16.62;94.71
55763;BME280;42162;51.958;5.426;2023-10-13T03:59:08;100827.63;;;16.60;95.10
55763;BME280;42162;51.958;5.426;2023-10-13T04:01:47;100811.97;;;16.59;94.93
55763;BME280;42162;51.958;5.426;2023-10-13T04:04:28;100816.44;;;16.57;95.08
55763;BME280;42162;51.958;5.426;2023-10-13T04:07:03;100797.34;;;16.55;95.43
55763;BME280;42162;51.958;5.426;2023-10-13T04:09:37;100792.91;;;16.55;95.47
55763;BME280;42162;51.958;5.426;2023-10-13T04:12:31;100781.59;;;16.55;95.35
55763;BME280;42162;51.958;5.426;2023-10-13T04:15:18;100782.44;;;16.55;95.31
55763;BME280;42162;51.958;5.426;2023-10-13T04:17:48;100783.31;;;16.56;95.50
55763;BME280;42162;51.958;5.426;2023-10-13T04:20:17;100771.03;;;16.56;95.92
55763;BME280;42162;51.958;5.426;2023-10-13T04:22:56;100758.00;;;16.55;95.74
55763;BME280;42162;51.958;5.426;2023-10-13T04:25:27;100752.00;;;16.53;95.91
55763;BME280;42162;51.958;5.426;2023-10-13T04:28:11;100741.56;;;16.51;96.01
55763;BME280;42162;51.958;5.426;2023-10-13T04:30:51;100725.09;;;16.49;96.24
55763;BME280;42162;51.958;5.426;2023-10-13T04:33:27;100718.97;;;16.48;96.20
55763;BME280;42162;51.958;5.426;2023-10-13T04:36:14;100720.66;;;16.49;96.50
55763;BME280;42162;51.958;5.426;2023-10-13T04:38:44;100717.13;;;16.50;96.71
55763;BME280;42162;51.958;5.426;2023-10-13T04:41:33;100709.25;;;16.50;96.78
55763;BME280;42162;51.958;5.426;2023-10-13T04:44:13;100706.63;;;16.50;97.05
55763;BME280;42162;51.958;5.426;2023-10-13T04:46:59;100715.19;;;16.54;96.88
55763;BME280;42162;51.958;5.426;2023-10-13T04:49:31;100710.56;;;16.59;97.12
55763;BME280;42162;51.958;5.426;2023-10-13T04:52:03;100713.00;;;16.62;97.13
55763;BME280;42162;51.958;5.426;2023-10-13T04:54:44;100702.31;;;16.67;97.45
55763;BME280;42162;51.958;5.426;2023-10-13T04:57:18;100710.75;;;16.72;97.56
55763;BME280;42162;51.958;5.426;2023-10-13T05:00:08;100716.63;;;16.77;97.91
55763;BME280;42162;51.958;5.426;2023-10-13T05:02:44;100706.72;;;16.83;97.74
55763;BME280;42162;51.958;5.426;2023-10-13T05:05:28;100701.22;;;16.87;97.92
55763;BME280;42162;51.958;5.426;2023-10-13T05:08:13;100705.31;;;16.93;98.08
55763;BME280;42162;51.958;5.426;2023-10-13T05:11:03;100718.22;;;16.98;98.07
55763;BME280;42162;51.958;5.426;2023-10-13T05:13:49;100692.59;;;17.03;98.14
55763;BME280;42162;51.958;5.426;2023-10-13T05:16:34;100709.00;;;17.06;98.42
55763;BME280;42162;51.958;5.426;2023-10-13T05:19:34;100702.50;;;17.14;98.22
55763;BME280;42162;51.958;5.426;2023-10-13T05:22:19;100690.91;;;17.18;98.03
55763;BME280;42162;51.958;5.426;2023-10-13T05:25:07;100695.88;;;17.22;98.26
55763;BME280;42162;51.958;5.426;2023-10-13T05:27:53;100699.97;;;17.28;97.91
55763;BME280;42162;51.958;5.426;2023-10-13T05:30:58;100702.59;;;17.28;97.98
55763;BME280;42162;51.958;5.426;2023-10-13T05:33:44;100674.47;;;17.30;97.51
55763;BME280;42162;51.958;5.426;2023-10-13T05:36:29;100677.00;;;17.32;97.29
55763;BME280;42162;51.958;5.426;2023-10-13T05:39:15;100672.63;;;17.32;97.54
55763;BME280;42162;51.958;5.426;2023-10-13T05:42:01;100670.66;;;17.36;97.48
55763;BME280;42162;51.958;5.426;2023-10-13T05:44:46;100666.34;;;17.35;97.21
55763;BME280;42162;51.958;5.426;2023-10-13T05:47:34;100662.88;;;17.34;97.39
55763;BME280;42162;51.958;5.426;2023-10-13T05:50:11;100660.16;;;17.36;97.18
55763;BME280;42162;51.958;5.426;2023-10-13T05:52:50;100668.91;;;17.36;97.23
55763;BME280;42162;51.958;5.426;2023-10-13T05:55:30;100663.56;;;17.38;96.78
55763;BME280;42162;51.958;5.426;2023-10-13T05:58:16;100661.84;;;17.37;96.97
55763;BME280;42162;51.958;5.426;2023-10-13T06:01:25;100655.78;;;17.36;97.13
55763;BME280;42162;51.958;5.426;2023-10-13T06:42:58;100604.09;;;17.37;97.05
55763;BME280;42162;51.958;5.426;2023-10-13T06:45:45;100604.00;;;17.38;97.28
55763;BME280;42162;51.958;5.426;2023-10-13T06:48:17;100603.84;;;17.41;97.42
55763;BME280;42162;51.958;5.426;2023-10-13T06:50:49;100601.97;;;17.43;97.29
55763;BME280;42162;51.958;5.426;2023-10-13T06:53:19;100597.56;;;17.44;97.71
55763;BME280;42162;51.958;5.426;2023-10-13T06:55:46;100601.88;;;17.45;97.75
55763;BME280;42162;51.958;5.426;2023-10-13T06:58:14;100600.03;;;17.47;97.70
55763;BME280;42162;51.958;5.426;2023-10-13T07:00:41;100592.13;;;17.47;97.73
55763;BME280;42162;51.958;5.426;2023-10-13T07:03:19;100592.03;;;17.49;97.96
55763;BME280;42162;51.958;5.426;2023-10-13T07:05:47;100590.19;;;17.51;97.74
55763;BME280;42162;51.958;5.426;2023-10-13T07:08:18;100592.81;;;17.51;97.92
55763;BME280;42162;51.958;5.426;2023-10-13T07:10:48;100584.09;;;17.50;97.87
55763;BME280;42162;51.958;5.426;2023-10-13T07:13:18;100567.31;;;17.53;97.94
55763;BME280;42162;51.958;5.426;2023-10-13T07:15:46;100567.41;;;17.51;97.84
55763;BME280;42162;51.958;5.426;2023-10-13T07:18:15;100573.50;;;17.52;97.78
55763;BME280;42162;51.958;5.426;2023-10-13T07:20:44;100550.78;;;17.51;97.60
55763;BME280;42162;51.958;5.426;2023-10-13T07:23:12;100556.16;;;17.49;97.69
55763;BME280;42162;51.958;5.426;2023-10-13T07:25:55;100547.41;;;17.49;97.39
55763;BME280;42162;51.958;5.426;2023-10-13T07:28:30;100537.75;;;17.49;97.04
55763;BME280;42162;51.958;5.426;2023-10-13T07:30:57;100535.91;;;17.51;97.42
55763;BME280;42162;51.958;5.426;2023-10-13T07:33:27;100537.66;;;17.51;96.99
55763;BME280;42162;51.958;5.426;2023-10-13T07:36:02;100532.34;;;17.52;97.10
55763;BME280;42162;51.958;5.426;2023-10-13T07:38:38;100534.03;;;17.53;97.11
55763;BME280;42162;51.958;5.426;2023-10-13T07:41:05;100534.78;;;17.55;97.22
55763;BME280;42162;51.958;5.426;2023-10-13T07:43:36;100542.56;;;17.57;97.01
55763;BME280;42162;51.958;5.426;2023-10-13T07:46:04;100534.50;;;17.60;96.87
55763;BME280;42162;51.958;5.426;2023-10-13T07:48:37;100533.56;;;17.61;97.30
55763;BME280;42162;51.958;5.426;2023-10-13T07:51:09;100539.56;;;17.63;96.94
55763;BME280;42162;51.958;5.426;2023-10-13T07:53:43;100518.38;;;17.66;97.04
55763;BME280;42162;51.958;5.426;2023-10-13T07:56:11;100524.41;;;17.68;96.70
55763;BME280;42162;51.958;5.426;2023-10-13T07:58:39;100514.56;;;17.72;96.46
55763;BME280;42162;51.958;5.426;2023-10-13T08:01:14;100523.09;;;17.76;96.31
55763;BME280;42162;51.958;5.426;2023-10-13T08:03:45;100515.88;;;17.79;96.22
55763;BME280;42162;51.958;5.426;2023-10-13T08:06:14;100530.50;;;17.83;95.57
55763;BME280;42162;51.958;5.426;2023-10-13T08:08:46;100526.84;;;17.86;95.84
55763;BME280;42162;51.958;5.426;2023-10-13T08:11:17;100511.84;;;17.88;95.45
55763;BME280;42162;51.958;5.426;2023-10-13T08:16:36;100511.56;;;17.93;95.43
55763;BME280;42162;51.958;5.426;2023-10-13T08:19:23;100503.50;;;17.96;95.16
55763;BME280;42162;51.958;5.426;2023-10-13T08:22:09;100513.75;;;18.00;94.91
55763;BME280;42162;51.958;5.426;2023-10-13T08:24:50;100508.22;;;18.05;94.60
55763;BME280;42162;51.958;5.426;2023-10-13T08:27:19;100507.94;;;18.10;94.28
55763;BME280;42162;51.958;5.426;2023-10-13T08:30:03;100496.31;;;18.14;94.16
55763;BME280;42162;51.958;5.426;2023-10-13T08:32:49;100499.41;;;18.21;93.31
55763;BME280;42162;51.958;5.426;2023-10-13T08:35:25;100503.63;;;18.23;93.06
55763;BME280;42162;51.958;5.426;2023-10-13T08:38:05;100491.97;;;18.27;93.01
55763;BME280;42162;51.958;5.426;2023-10-13T08:40:58;100479.56;;;18.29;92.46
55763;BME280;42162;51.958;5.426;2023-10-13T08:43:44;100494.31;;;18.32;92.37
55763;BME280;42162;51.958;5.426;2023-10-13T08:46:19;100503.91;;;18.33;91.95
55763;BME280;42162;51.958;5.426;2023-10-13T08:48:56;100489.59;;;18.37;91.38
55763;BME280;42162;51.958;5.426;2023-10-13T08:51:41;100496.19;;;18.44;91.13
55763;BME280;42162;51.958;5.426;2023-10-13T08:54:33;100484.50;;;18.48;90.46
55763;BME280;42162;51.958;5.426;2023-10-13T08:57:02;100473.69;;;18.53;90.22
55763;BME280;42162;51.958;5.426;2023-10-13T08:59:47;100479.63;;;18.57;90.24
55763;BME280;42162;51.958;5.426;2023-10-13T09:02:21;100473.31;;;18.59;89.71
55763;BME280;42162;51.958;5.426;2023-10-13T09:05:09;100461.75;;;18.62;89.75
55763;BME280;42162;51.958;5.426;2023-10-13T09:07:57;100460.91;;;18.61;89.45
55763;BME280;42162;51.958;5.426;2023-10-13T09:10:35;100459.97;;;18.62;89.34
55763;BME280;42162;51.958;5.426;2023-10-13T09:13:16;100454.59;;;18.64;89.32
55763;BME280;42162;51.958;5.426;2023-10-13T09:15:48;100460.69;;;18.64;89.41
55763;BME280;42162;51.958;5.426;2023-10-13T09:18:43;100464.06;;;18.66;88.88
55763;BME280;42162;51.958;5.426;2023-10-13T09:21:16;100457.88;;;18.68;88.81
55763;BME280;42162;51.958;5.426;2023-10-13T09:24:13;100451.66;;;18.69;88.20
55763;BME280;42162;51.958;5.426;2023-10-13T09:26:50;100444.53;;;18.71;88.49
55763;BME280;42162;51.958;5.426;2023-10-13T09:29:22;100447.34;;;18.68;88.11
55763;BME280;42162;51.958;5.426;2023-10-13T09:32:00;100447.28;;;18.69;88.17
55763;BME280;42162;51.958;5.426;2023-10-13T09:34:30;100441.91;;;18.71;87.75
55763;BME280;42162;51.958;5.426;2023-10-13T09:37:01;100448.75;;;18.73;87.65
55763;BME280;42162;51.958;5.426;2023-10-13T09:39:32;100450.44;;;18.74;87.82
55763;BME280;42162;51.958;5.426;2023-10-13T09:42:12;100447.59;;;18.77;87.54
55763;BME280;42162;51.958;5.426;2023-10-13T09:44:44;100447.41;;;18.80;87.32
55763;BME280;42162;51.958;5.426;2023-10-13T09:47:22;100457.72;;;18.84;87.34
55763;BME280;42162;51.958;5.426;2023-10-13T09:50:08;100431.31;;;18.85;86.67
55763;BME280;42162;51.958;5.426;2023-10-13T09:52:43;100430.28;;;18.88;86.79
55763;BME280;42162;51.958;5.426;2023-10-13T09:55:35;100432.03;;;18.87;86.60
55763;BME280;42162;51.958;5.426;2023-10-13T09:58:07;100410.78;;;18.90;86.27
55763;BME280;42162;51.958;5.426;2023-10-13T10:00:47;100394.06;;;18.91;85.96
55763;BME280;42162;51.958;5.426;2023-10-13T10:03:23;100413.34;;;18.92;85.82
55763;BME280;42162;51.958;5.426;2023-10-13T10:06:02;100407.09;;;18.93;85.75
55763;BME280;42162;51.958;5.426;2023-10-13T10:08:45;100408.00;;;18.93;85.73
55763;BME280;42162;51.958;5.426;2023-10-13T10:14:35;100392.72;;;18.99;85.06
55763;BME280;42162;51.958;5.426;2023-10-13T10:17:07;100396.09;;;19.01;84.88
55763;BME280;42162;51.958;5.426;2023-10-13T10:19:52;100396.03;;;19.02;84.26
55763;BME280;42162;51.958;5.426;2023-10-13T10:22:33;100393.28;;;19.04;84.23
55763;BME280;42162;51.958;5.426;2023-10-13T10:25:01;100404.56;;;19.06;83.99
55763;BME280;42162;51.958;5.426;2023-10-13T10:27:31;100395.59;;;19.08;83.73
55763;BME280;42162;51.958;5.426;2023-10-13T10:29:59;100401.50;;;19.12;83.81
55763;BME280;42162;51.958;5.426;2023-10-13T10:35:08;100386.88;;;19.21;83.28
55763;BME280;42162;51.958;5.426;2023-10-13T10:37:48;100369.38;;;19.33;83.30
55763;BME280;42162;51.958;5.426;2023-10-13T10:40:16;100370.84;;;19.37;82.50
55763;BME280;42162;51.958;5.426;2023-10-13T10:43:03;100363.50;;;19.42;82.50
55763;BME280;42162;51.958;5.426;2023-10-13T10:45:56;100377.41;;;19.44;82.09
55763;BME280;42162;51.958;5.426;2023-10-13T10:48:27;100363.16;;;19.47;82.36
55763;BME280;42162;51.958;5.426;2023-10-13T10:51:01;100360.34;;;19.50;81.64
55763;BME280;42162;51.958;5.426;2023-10-13T10:53:34;100368.00;;;19.53;81.61
55763;BME280;42162;51.958;5.426;2023-10-13T10:56:14;100360.84;;;19.55;81.22
55763;BME280;42162;51.958;5.426;2023-10-13T10:58:48;100344.81;;;19.58;81.13
55763;BME280;42162;51.958;5.426;2023-10-13T11:01:15;100357.78;;;19.61;81.22
55763;BME280;42162;51.958;5.426;2023-10-13T11:03:58;100347.63;;;19.68;80.45
55763;BME280;42162;51.958;5.426;2023-10-13T11:06:26;100351.31;;;19.78;80.46
55763;BME280;42162;51.958;5.426;2023-10-13T11:09:04;100336.22;;;19.80;80.34
55763;BME280;42162;51.958;5.426;2023-10-13T11:11:33;100332.88;;;19.78;79.83
55763;BME280;42162;51.958;5.426;2023-10-13T11:14:02;100341.81;;;19.76;79.97
55763;BME280;42162;51.958;5.426;2023-10-13T11:16:46;100331.53;;;19.72;79.56
55763;BME280;42162;51.958;5.426;2023-10-13T11:19:17;100329.84;;;19.71;80.10
55763;BME280;42162;51.958;5.426;2023-10-13T11:21:52;100314.97;;;19.70;79.72
55763;BME280;42162;51.958;5.426;2023-10-13T11:24:27;100331.53;;;19.72;78.81
55763;BME280;42162;51.958;5.426;2023-10-13T11:27:21;100318.03;;;19.77;78.71
55763;BME280;42162;51.958;5.426;2023-10-13T11:30:08;100304.72;;;19.79;78.26
55763;BME280;42162;51.958;5.426;2023-10-13T11:32:40;100311.88;;;19.77;78.18
55763;BME280;42162;51.958;5.426;2023-10-13T11:35:11;100302.44;;;19.74;78.04
55763;BME280;42162;51.958;5.426;2023-10-13T11:37:47;100304.84;;;19.77;77.25
55763;BME280;42162;51.958;5.426;2023-10-13T11:40:23;100307.34;;;19.79;76.80
55763;BME280;42162;51.958;5.426;2023-10-13T11:43:10;100304.59;;;19.80;76.16
55763;BME280;42162;51.958;5.426;2023-10-13T11:45:50;100281.41;;;19.85;75.62
55763;BME280;42162;51.958;5.426;2023-10-13T11:48:44;100289.00;;;19.90;75.30
55763;BME280;42162;51.958;5.426;2023-10-13T11:51:14;100292.47;;;19.91;74.96
55763;BME280;42162;51.958;5.426;2023-10-13T11:53:51;100287.94;;;19.93;75.09
55763;BME280;42162;51.958;5.426;2023-10-13T11:56:22;100293.00;;;19.96;74.55
55763;BME280;42162;51.958;5.426;2023-10-13T11:58:50;100284.88;;;19.99;74.79
55763;BME280;42162;51.958;5.426;2023-10-13T12:01:18;100277.69;;;20.01;74.97
55763;BME280;42162;51.958;5.426;2023-10-13T12:03:52;100278.41;;;20.03;74.92
55763;BME280;42162;51.958;5.426;2023-10-13T12:07:08;100286.44;;;20.01;74.63
55763;BME280;42162;51.958;5.426;2023-10-13T12:09:51;100280.94;;;20.04;74.64
55763;BME280;42162;51.958;5.426;2023-10-13T12:12:30;100288.94;;;20.03;75.05
55763;BME280;42162;51.958;5.426;2023-10-13T12:15:07;100288.00;;;20.04;75.15
55763;BME280;42162;51.958;5.426;2023-10-13T12:17:52;100290.75;;;20.02;75.22
55763;BME280;42162;51.958;5.426;2023-10-13T12:20:19;100299.63;;;20.01;74.83
55763;BME280;42162;51.958;5.426;2023-10-13T12:23:01;100302.13;;;20.03;74.80
55763;BME280;42162;51.958;5.426;2023-10-13T12:25:43;100293.06;;;20.07;74.87
55763;BME280;42162;51.958;5.426;2023-10-13T12:28:24;100280.47;;;20.11;74.39
55763;BME280;42162;51.958;5.426;2023-10-13T12:30:55;100281.00;;;20.16;74.17
55763;BME280;42162;51.958;5.426;2023-10-13T12:33:25;100270.09;;;20.21;73.94
55763;BME280;42162;51.958;5.426;2023-10-13T12:36:04;100266.38;;;20.23;73.45
55763;BME280;42162;51.958;5.426;2023-10-13T12:38:41;100258.13;;;20.28;73.26
55763;BME280;42162;51.958;5.426;2023-10-13T12:41:15;100261.50;;;20.30;73.47
55763;BME280;42162;51.958;5.426;2023-10-13T12:44:03;100245.81;;;20.28;73.41
55763;BME280;42162;51.958;5.426;2023-10-13T12:46:50;100239.69;;;20.28;73.29
55763;BME280;42162;51.958;5.426;2023-10-13T12:49:37;100240.53;;;20.28;73.31
55763;BME280;42162;51.958;5.426;2023-10-13T12:52:12;100253.47;;;20.31;72.96
55763;BME280;42162;51.958;5.426;2023-10-13T12:54:58;100253.47;;;20.31;73.08
55763;BME280;42162;51.958;5.426;2023-10-13T12:57:33;100258.88;;;20.30;72.98
55763;BME280;42162;51.958;5.426;2023-10-13T13:00:01;100253.72;;;20.28;73.26
55763;BME280;42162;51.958;5.426;2023-10-13T13:02:43;100252.13;;;20.26;73.39
55763;BME280;42162;51.958;5.426;2023-10-13T13:05:10;100261.13;;;20.23;72.89
55763;BME280;42162;51.958;5.426;2023-10-13T13:07:41;100254.75;;;20.26;72.61
55763;BME280;42162;51.958;5.426;2023-10-13T13:10:14;100254.53;;;20.29;72.60
55763;BME280;42162;51.958;5.426;2023-10-13T13:12:41;100255.41;;;20.29;72.75
55763;BME280;42162;51.958;5.426;2023-10-13T13:15:09;100258.88;;;20.30;72.26
55763;BME280;42162;51.958;5.426;2023-10-13T13:17:37;100253.47;;;20.31;72.46
55763;BME280;42162;51.958;5.426;2023-10-13T13:20:07;100250.84;;;20.31;72.23
55763;BME280;42162;51.958;5.426;2023-10-13T13:23:00;100268.81;;;20.26;72.96
55763;BME280;42162;51.958;5.426;2023-10-13T13:25:31;100275.38;;;20.21;73.35
55763;BME280;42162;51.958;5.426;2023-10-13T13:27:59;100250.41;;;20.13;73.76
55763;BME280;42162;51.958;5.426;2023-10-13T13:30:31;100241.50;;;20.03;74.12
55763;BME280;42162;51.958;5.426;2023-10-13T13:33:02;100242.91;;;19.96;75.05
55763;BME280;42162;51.958;5.426;2023-10-13T13:35:41;100238.13;;;19.90;75.19
55763;BME280;42162;51.958;5.426;2023-10-13T13:38:10;100243.59;;;19.86;75.42
55763;BME280;42162;51.958;5.426;2023-10-13T13:40:43;100249.91;;;19.84;75.57
55763;BME280;42162;51.958;5.426;2023-10-13T13:43:16;100234.31;;;19.81;75.57
55763;BME280;42162;51.958;5.426;2023-10-13T13:45:59;100238.13;;;19.77;76.08
55763;BME280;42162;51.958;5.426;2023-10-13T13:48:30;100242.78;;;19.73;76.17
55763;BME280;42162;51.958;5.426;2023-10-13T13:51:06;100241.31;;;19.69;76.78
55763;BME280;42162;51.958;5.426;2023-10-13T13:53:43;100236.28;;;19.66;76.59
55763;BME280;42162;51.958;5.426;2023-10-13T13:56:15;100240.91;;;19.62;76.76
55763;BME280;42162;51.958;5.426;2023-10-13T13:58:45;100241.97;;;19.60;76.69
55763;BME280;42162;51.958;5.426;2023-10-13T14:01:13;100246.41;;;19.59;77.06
55763;BME280;42162;51.958;5.426;2023-10-13T14:03:46;100246.41;;;19.59;77.32
55763;BME280;42162;51.958;5.426;2023-10-13T14:06:15;100255.34;;;19.56;77.48
55763;BME280;42162;51.958;5.426;2023-10-13T14:08:56;100245.16;;;19.52;77.96
55763;BME280;42162;51.958;5.426;2023-10-13T14:11:29;100247.16;;;19.48;78.26
55763;BME280;42162;51.958;5.426;2023-10-13T14:16:42;100234.78;;;19.37;78.98
55763;BME280;42162;51.958;5.426;2023-10-13T14:19:14;100249.94;;;19.34;79.06
55763;BME280;42162;51.958;5.426;2023-10-13T14:24:21;100263.75;;;19.24;79.97
55763;BME280;42162;51.958;5.426;2023-10-13T14:26:59;100264.09;;;19.20;80.27
55763;BME280;42162;51.958;5.426;2023-10-13T14:29:38;100276.50;;;19.18;80.44